Time;durP1;ratioP1;P1;durP2;ratioP2;P2;SDS_P1;SDS_P2;PMS_P1;PMS_P2;Temp;Humidity;BMP_temperature;BMP_pressure;BME280_temperature;BME280_humidity;BME280_pressure;Samples;Min_cycle;Max_cycle;Signal;HPM_P1;HPM_P2
2023/06/08 00:02:10;;;;;;;6.30;3.60;;;;;;;19.67;57.71;100955.86;107970;1261;59930;-81
2023/06/08 00:04:40;;;;;;;6.00;3.30;;;;;;;19.66;57.83;100953.37;107940;1257;74629;-82
2023/06/08 00:07:14;;;;;;;6.50;3.50;;;;;;;19.62;57.91;100953.63;107913;1257;72965;-81
2023/06/08 00:09:41;;;;;;;5.10;3.40;;;;;;;19.58;58.28;100955.25;107975;1258;71408;-81
2023/06/08 00:12:08;;;;;;;5.00;3.30;;;;;;;19.52;58.33;100954.79;107963;1257;61906;-81
2023/06/08 00:14:37;;;;;;;6.00;3.30;;;;;;;19.47;58.78;100954.14;107879;1257;61097;-82
2023/06/08 00:17:04;;;;;;;5.10;3.60;;;;;;;19.43;59.01;100954.85;107978;1256;74578;-81
2023/06/08 00:19:33;;;;;;;5.10;3.60;;;;;;;19.36;59.45;100952.25;108007;1257;71498;-82
2023/06/08 00:22:04;;;;;;;7.30;4.50;;;;;;;19.30;59.68;100943.41;107993;1261;71527;-81
2023/06/08 00:24:32;;;;;;;5.40;4.00;;;;;;;19.23;59.99;100934.70;107938;1258;61243;-81
2023/06/08 00:26:59;;;;;;;5.30;3.70;;;;;;;19.16;60.15;100935.15;107918;1256;62658;-82
2023/06/08 00:29:27;;;;;;;5.30;3.50;;;;;;;19.09;60.45;100931.50;107998;1257;75056;-82
2023/06/08 00:31:54;;;;;;;5.40;3.40;;;;;;;19.01;60.34;100929.16;108044;1261;72850;-82
2023/06/08 00:34:21;;;;;;;4.40;3.30;;;;;;;18.92;60.30;100924.67;107767;1256;72669;-81
2023/06/08 00:36:48;;;;;;;5.10;3.50;;;;;;;18.87;60.48;100923.72;107993;1256;61992;-81
2023/06/08 00:39:15;;;;;;;5.00;3.50;;;;;;;18.82;60.56;100920.64;107995;1262;61131;-81
2023/06/08 00:41:42;;;;;;;5.00;3.30;;;;;;;18.78;60.69;100919.99;107933;1257;74959;-81
2023/06/08 00:44:09;;;;;;;5.80;3.90;;;;;;;18.76;60.84;100921.85;107917;1257;72697;-81
2023/06/08 00:46:37;;;;;;;5.80;3.50;;;;;;;18.75;60.95;100919.80;107999;1256;72497;-83
2023/06/08 00:49:08;;;;;;;9.10;3.90;;;;;;;18.75;60.95;100921.36;107992;1257;62049;-83
2023/06/08 00:51:38;;;;;;;6.50;3.50;;;;;;;18.78;60.70;100927.75;107956;1257;61102;-82
2023/06/08 00:54:05;;;;;;;6.40;3.60;;;;;;;18.81;60.48;100930.17;108013;1257;74978;-80
2023/06/08 00:56:32;;;;;;;7.80;4.00;;;;;;;18.86;60.48;100931.91;107815;1257;72735;-80
2023/06/08 00:59:01;;;;;;;4.80;3.50;;;;;;;18.91;60.47;100934.38;107979;1257;72811;-80
2023/06/08 01:01:30;;;;;;;6.20;3.70;;;;;;;18.94;60.43;100932.48;107959;1258;61131;-81
2023/06/08 01:04:05;;;;;;;5.10;3.70;;;;;;;18.91;60.18;100924.79;107987;1257;61155;-81
2023/06/08 01:06:48;;;;;;;5.00;3.50;;;;;;;18.87;60.27;100919.39;107830;1257;73389;-80
2023/06/08 01:09:27;;;;;;;5.30;4.00;;;;;;;18.80;60.46;100917.91;107946;1257;72869;-80
2023/06/08 01:12:06;;;;;;;4.70;3.60;;;;;;;18.76;60.72;100916.54;107774;1257;72378;-80
2023/06/08 01:14:52;;;;;;;6.70;3.90;;;;;;;18.77;60.66;100919.29;107760;1257;61964;-80
2023/06/08 01:17:25;;;;;;;5.80;3.50;;;;;;;18.77;60.51;100922.40;107910;1258;61098;-81
2023/06/08 01:20:20;;;;;;;6.40;4.00;;;;;;;18.80;60.42;100921.06;107953;1257;74491;-81
2023/06/08 01:22:58;;;;;;;6.80;3.70;;;;;;;18.81;60.60;100921.58;107806;1257;72844;-80
2023/06/08 01:25:29;;;;;;;6.30;3.50;;;;;;;18.81;60.70;100918.11;107928;1257;72778;-81
2023/06/08 01:28:11;;;;;;;4.80;3.60;;;;;;;18.81;60.54;100921.06;107943;1258;63044;-81
2023/06/08 01:30:40;;;;;;;7.30;4.00;;;;;;;18.81;60.39;100923.84;107992;1258;61382;-81
2023/06/08 01:33:18;;;;;;;5.30;3.80;;;;;;;18.82;60.36;100921.17;107926;1257;74525;-81
2023/06/08 01:36:18;;;;;;;6.00;3.70;;;;;;;18.85;60.19;100922.04;107802;1258;72528;-80
2023/06/08 01:39:11;;;;;;;6.00;3.70;;;;;;;18.89;60.02;100922.05;107881;1257;73365;-80
2023/06/08 01:41:41;;;;;;;6.00;3.60;;;;;;;18.94;60.01;100925.56;107807;1257;61289;-80
2023/06/08 01:44:10;;;;;;;5.10;4.00;;;;;;;18.98;59.67;100926.65;107875;1257;61141;-81
2023/06/08 01:46:37;;;;;;;6.10;3.70;;;;;;;19.02;59.80;100923.05;107962;1258;73377;-81
2023/06/08 01:49:04;;;;;;;6.00;3.90;;;;;;;19.08;59.63;100925.05;108057;1259;72697;-80
2023/06/08 01:51:32;;;;;;;5.50;4.10;;;;;;;19.11;59.58;100919.34;107866;1257;72484;-81
2023/06/08 01:54:00;;;;;;;4.20;3.70;;;;;;;19.13;59.55;100917.20;108024;1258;61685;-81
2023/06/08 01:56:30;;;;;;;7.30;3.90;;;;;;;19.15;59.53;100919.46;107988;1261;61247;-84
2023/06/08 01:58:57;;;;;;;4.70;3.90;;;;;;;19.17;59.75;100916.54;107825;1257;73843;-81
2023/06/08 02:01:24;;;;;;;6.00;3.60;;;;;;;19.14;59.64;100908.31;108003;1257;72546;-81
2023/06/08 02:03:51;;;;;;;5.30;3.70;;;;;;;19.08;59.91;100909.55;107775;1257;73131;-80
2023/06/08 02:06:18;;;;;;;5.70;4.10;;;;;;;19.03;60.30;100909.45;107642;1263;61677;-80
2023/06/08 02:08:45;;;;;;;5.50;4.00;;;;;;;18.97;60.71;100909.95;107779;1256;61278;-80
2023/06/08 02:11:12;;;;;;;5.60;4.00;;;;;;;18.93;60.73;100912.63;107743;1257;73097;-80
2023/06/08 02:13:43;;;;;;;5.90;3.90;;;;;;;18.93;60.97;100911.83;107779;1258;72815;-80
2023/06/08 02:16:11;;;;;;;7.00;4.20;;;;;;;18.95;61.10;100914.93;107902;1261;72484;-82
2023/06/08 02:18:41;;;;;;;6.40;4.00;;;;;;;18.92;61.02;100915.36;107944;1257;62001;-82
2023/06/08 02:21:09;;;;;;;5.20;3.70;;;;;;;18.93;61.07;100918.16;108017;1261;61818;-82
2023/06/08 02:23:36;;;;;;;5.50;4.00;;;;;;;18.94;61.08;100921.27;107928;1260;74573;-81
2023/06/08 02:26:04;;;;;;;5.80;4.20;;;;;;;18.99;60.97;100922.79;107935;1257;73384;-80
2023/06/08 02:28:31;;;;;;;6.80;4.10;;;;;;;19.07;61.06;100921.81;107975;1260;72475;-81
2023/06/08 02:30:58;;;;;;;6.00;3.70;;;;;;;19.14;61.11;100919.65;107958;1261;61187;-81
2023/06/08 02:33:25;;;;;;;5.10;3.90;;;;;;;19.20;60.91;100926.72;108018;1261;61092;-80
2023/06/08 02:35:53;;;;;;;6.10;3.60;;;;;;;19.23;60.56;100929.45;107939;1257;74693;-80
2023/06/08 02:38:21;;;;;;;7.70;4.00;;;;;;;19.18;60.36;100935.69;107949;1257;72669;-80
2023/06/08 02:40:48;;;;;;;7.30;4.30;;;;;;;19.12;60.34;100937.80;107948;1256;72516;-80
2023/06/08 02:43:18;;;;;;;6.30;4.80;;;;;;;19.11;60.32;100938.33;107908;1257;61887;-81
2023/06/08 02:45:45;;;;;;;7.00;4.40;;;;;;;19.14;60.56;100941.89;107964;1257;61087;-80
2023/06/08 02:48:12;;;;;;;8.00;4.50;;;;;;;19.17;60.78;100940.38;107924;1258;74587;-80
2023/06/08 02:50:39;;;;;;;7.70;4.40;;;;;;;19.20;60.80;100943.35;107966;1260;70980;-80
2023/06/08 02:53:06;;;;;;;7.10;4.30;;;;;;;19.17;61.12;100947.30;107942;1256;72498;-80
2023/06/08 02:55:36;;;;;;;6.50;4.60;;;;;;;19.17;61.34;100948.83;107797;1257;62077;-80
2023/06/08 02:58:10;;;;;;;5.40;4.20;;;;;;;19.19;61.53;100948.17;107906;1260;61266;-80
2023/06/08 03:00:37;;;;;;;7.20;4.30;;;;;;;19.24;61.29;100948.98;107779;1258;73562;-80
2023/06/08 03:03:24;;;;;;;5.80;4.20;;;;;;;19.30;61.07;100949.45;107857;1257;72609;-81
2023/06/08 03:05:59;;;;;;;6.10;4.20;;;;;;;19.35;60.88;100945.77;107958;1257;72591;-81
2023/06/08 03:08:30;;;;;;;5.20;3.80;;;;;;;19.38;60.80;100945.38;107838;1257;62146;-80
2023/06/08 03:10:57;;;;;;;6.90;4.10;;;;;;;19.40;60.65;100944.89;107937;1257;59979;-80
2023/06/08 03:13:24;;;;;;;5.70;4.30;;;;;;;19.40;60.87;100947.38;107931;1257;73679;-81
2023/06/08 03:15:53;;;;;;;6.00;4.20;;;;;;;19.41;61.21;100949.80;107833;1258;72685;-80
2023/06/08 03:18:22;;;;;;;5.50;4.20;;;;;;;19.43;61.61;100948.16;107937;1258;72519;-82
2023/06/08 03:20:51;;;;;;;6.50;4.10;;;;;;;19.47;61.79;100952.11;107974;1260;62027;-81
2023/06/08 03:23:21;;;;;;;5.50;4.20;;;;;;;19.50;61.90;100951.02;107814;1256;61119;-82
2023/06/08 03:25:51;;;;;;;5.00;3.80;;;;;;;19.50;62.03;100953.85;107878;1257;74776;-82
2023/06/08 03:28:19;;;;;;;5.40;3.90;;;;;;;19.54;62.24;100954.88;108007;1257;72831;-82
2023/06/08 03:30:46;;;;;;;5.00;3.40;;;;;;;19.54;62.27;100954.33;107967;1257;72631;-81
2023/06/08 03:33:15;;;;;;;6.90;3.70;;;;;;;19.46;62.41;100947.96;107720;1258;61120;-82
2023/06/08 03:35:56;;;;;;;4.50;3.50;;;;;;;19.37;62.47;100946.20;107902;1257;61207;-82
2023/06/08 03:38:28;;;;;;;4.70;3.70;;;;;;;19.29;62.38;100947.42;107839;1257;74724;-82
2023/06/08 03:40:59;;;;;;;6.00;4.10;;;;;;;19.27;62.60;100942.55;107877;1257;71753;-82
2023/06/08 03:43:26;;;;;;;5.90;4.30;;;;;;;19.26;62.86;100945.32;107732;1257;72513;-81
2023/06/08 03:45:53;;;;;;;7.80;4.40;;;;;;;19.26;63.14;100942.61;107771;1257;61819;-81
2023/06/08 03:48:20;;;;;;;5.50;3.80;;;;;;;19.27;63.03;100944.27;107788;1257;61205;-82
2023/06/08 03:50:48;;;;;;;5.30;4.20;;;;;;;19.27;62.94;100944.27;107914;1260;74522;-81
2023/06/08 03:53:16;;;;;;;6.10;4.30;;;;;;;19.28;62.83;100944.19;107813;1262;72747;-82
2023/06/08 03:55:43;;;;;;;5.90;4.00;;;;;;;19.33;62.62;100944.29;107847;1258;72554;-82
2023/06/08 03:58:29;;;;;;;6.10;4.20;;;;;;;19.38;62.37;100938.65;107818;1256;61877;-81
2023/06/08 04:00:56;;;;;;;5.40;4.10;;;;;;;19.42;62.18;100930.59;107901;1257;61214;-82
2023/06/08 04:03:26;;;;;;;5.40;4.10;;;;;;;19.42;62.19;100926.42;107813;1257;74517;-82
2023/06/08 04:05:54;;;;;;;5.80;3.80;;;;;;;19.37;61.97;100925.61;107849;1257;72846;-81
2023/06/08 04:08:22;;;;;;;6.20;4.30;;;;;;;19.28;62.12;100922.74;107958;1260;72511;-82
2023/06/08 04:10:50;;;;;;;5.00;4.30;;;;;;;19.16;62.48;100917.64;107897;1257;62081;-81
2023/06/08 04:13:16;;;;;;;6.10;4.20;;;;;;;19.08;62.67;100918.44;107969;1260;61145;-82
2023/06/08 04:15:44;;;;;;;5.10;3.90;;;;;;;19.03;63.04;100912.96;107936;1257;74612;-81
2023/06/08 04:18:11;;;;;;;5.90;4.20;;;;;;;18.97;63.16;100911.83;107817;1257;72742;-81
2023/06/08 04:20:40;;;;;;;5.40;4.00;;;;;;;18.95;63.34;100914.11;107868;1257;72503;-81
2023/06/08 04:23:06;;;;;;;6.10;3.90;;;;;;;18.96;63.56;100916.27;107971;1258;60491;-81
2023/06/08 04:25:33;;;;;;;7.10;4.20;;;;;;;18.99;63.60;100915.92;107831;1258;61151;-81
2023/06/08 04:28:01;;;;;;;6.70;4.90;;;;;;;19.04;63.68;100919.13;107940;1257;74750;-81
2023/06/08 04:30:28;;;;;;;7.10;4.50;;;;;;;19.13;63.87;100916.42;107834;1257;72769;-81
2023/06/08 04:33:14;;;;;;;6.20;4.30;;;;;;;19.26;63.71;100916.56;107979;1257;72548;-81
2023/06/08 04:35:42;;;;;;;6.20;4.30;;;;;;;19.35;63.56;100913.10;107965;1257;61260;-82
2023/06/08 04:38:14;;;;;;;5.40;4.20;;;;;;;19.42;63.20;100916.82;107804;1257;61068;-81
2023/06/08 04:40:54;;;;;;;5.90;4.20;;;;;;;19.53;63.10;100915.54;107827;1257;74656;-82
2023/06/08 04:43:25;;;;;;;5.30;4.00;;;;;;;19.62;62.99;100913.15;107837;1257;71287;-80
2023/06/08 04:45:57;;;;;;;6.40;4.30;;;;;;;19.72;62.91;100914.05;107802;1258;72650;-81
2023/06/08 04:48:26;;;;;;;5.50;3.90;;;;;;;19.83;62.62;100918.34;107771;1257;61987;-80
2023/06/08 04:50:54;;;;;;;5.00;4.20;;;;;;;19.94;62.39;100919.58;108336;1258;59180;-81
2023/06/08 04:53:21;;;;;;;5.70;4.10;;;;;;;20.07;62.14;100916.70;108584;1257;74637;-80
2023/06/08 04:55:49;;;;;;;5.20;4.00;;;;;;;20.21;62.00;100917.25;107881;1257;72610;-81
2023/06/08 04:58:16;;;;;;;5.40;4.00;;;;;;;20.33;61.54;100917.30;107832;1262;71689;-81
2023/06/08 05:00:43;;;;;;;5.30;3.90;;;;;;;20.47;60.93;100913.55;107874;1256;61330;-82
2023/06/08 05:03:10;;;;;;;5.60;4.10;;;;;;;20.58;59.97;100916.13;107987;1256;62091;-80
2023/06/08 05:05:38;;;;;;;4.60;3.60;;;;;;;20.68;59.51;100919.37;107919;1257;74536;-83
2023/06/08 05:08:05;;;;;;;5.60;4.30;;;;;;;20.76;59.43;100917.25;107931;1257;72596;-80
2023/06/08 05:10:32;;;;;;;4.80;3.80;;;;;;;20.84;59.08;100923.23;107972;1256;72358;-82
2023/06/08 05:12:59;;;;;;;4.70;4.00;;;;;;;20.92;58.55;100922.30;107924;1257;61273;-80
2023/06/08 05:15:26;;;;;;;5.00;4.00;;;;;;;21.00;58.13;100927.77;107892;1257;61177;-80
2023/06/08 05:17:55;;;;;;;5.60;3.80;;;;;;;21.08;57.56;100928.77;107904;1257;74751;-82
2023/06/08 05:20:24;;;;;;;6.40;4.00;;;;;;;21.16;57.08;100930.75;107871;1256;71571;-80
2023/06/08 05:22:52;;;;;;;6.30;4.00;;;;;;;21.26;56.53;100929.85;107887;1256;71786;-80
2023/06/08 05:25:19;;;;;;;5.30;4.00;;;;;;;21.35;56.05;100929.32;107932;1257;61114;-81
2023/06/08 05:27:46;;;;;;;4.70;3.90;;;;;;;21.41;55.78;100928.76;107955;1256;61164;-81
2023/06/08 05:30:13;;;;;;;5.90;4.30;;;;;;;21.47;55.27;100931.66;107850;1257;74521;-80
2023/06/08 05:32:40;;;;;;;5.00;3.80;;;;;;;21.53;55.13;100933.27;107906;1257;72949;-80
2023/06/08 05:35:07;;;;;;;5.40;3.90;;;;;;;21.61;54.71;100933.83;107866;1257;72417;-81
2023/06/08 05:37:34;;;;;;;4.80;3.30;;;;;;;21.67;54.20;100934.42;107871;1257;61868;-81
2023/06/08 05:40:01;;;;;;;7.30;4.20;;;;;;;21.74;54.15;100934.89;107886;1257;61132;-80
2023/06/08 05:42:28;;;;;;;4.70;3.40;;;;;;;21.86;54.03;100930.96;107879;1257;74788;-80
2023/06/08 05:44:55;;;;;;;4.40;3.60;;;;;;;21.93;53.44;100933.06;107923;1257;71213;-80
2023/06/08 05:47:22;;;;;;;5.30;3.80;;;;;;;21.99;52.82;100938.41;107891;1257;72693;-80
2023/06/08 05:49:54;;;;;;;6.40;3.90;;;;;;;22.02;52.64;100941.26;107929;1257;61148;-81
2023/06/08 05:52:21;;;;;;;4.80;3.70;;;;;;;22.03;52.48;100945.09;107812;1256;61135;-81
2023/06/08 05:54:48;;;;;;;6.00;4.20;;;;;;;22.05;52.72;100951.27;107885;1256;74344;-81
2023/06/08 05:57:15;;;;;;;5.50;3.90;;;;;;;22.13;52.50;100955.72;107879;1257;71386;-81
2023/06/08 05:59:42;;;;;;;5.90;4.00;;;;;;;22.21;52.24;100952.89;107857;1257;72569;-80
2023/06/08 06:02:08;;;;;;;5.90;4.20;;;;;;;22.28;52.10;100956.59;107921;1257;61145;-81
2023/06/08 06:04:36;;;;;;;5.40;4.30;;;;;;;22.37;52.10;100964.34;107884;1257;61095;-80
2023/06/08 06:07:05;;;;;;;6.20;3.70;;;;;;;22.49;51.98;100964.92;107854;1257;74672;-80
2023/06/08 06:09:33;;;;;;;4.80;3.50;;;;;;;22.65;51.95;100965.61;107775;1257;71451;-80
2023/06/08 06:12:01;;;;;;;6.40;3.90;;;;;;;22.75;51.25;100970.98;107903;1257;72673;-80
2023/06/08 06:14:36;;;;;;;7.30;4.20;;;;;;;22.87;51.11;100972.48;107839;1257;61153;-80
2023/06/08 06:17:05;;;;;;;4.50;3.50;;;;;;;23.04;51.19;100973.99;107886;1257;61238;-80
2023/06/08 06:19:36;;;;;;;5.10;3.70;;;;;;;23.20;50.43;100976.58;107899;1257;74712;-80
2023/06/08 06:22:05;;;;;;;4.40;3.20;;;;;;;23.33;50.47;100979.79;107883;1257;72640;-81
2023/06/08 06:24:32;;;;;;;4.90;3.80;;;;;;;23.49;49.79;100982.21;107878;1257;72443;-79
2023/06/08 06:26:59;;;;;;;5.30;3.60;;;;;;;23.59;49.32;100985.65;107814;1257;61247;-80
2023/06/08 06:29:27;;;;;;;6.80;4.00;;;;;;;23.63;48.66;100987.80;107811;1257;61122;-80
2023/06/08 06:31:54;;;;;;;5.00;3.80;;;;;;;23.64;48.00;100990.48;107894;1260;74628;-80
2023/06/08 06:34:21;;;;;;;6.00;4.00;;;;;;;23.63;47.80;100991.07;107874;1257;72631;-80
2023/06/08 06:36:48;;;;;;;5.10;3.80;;;;;;;23.59;47.84;100988.06;107796;1257;72551;-80
2023/06/08 06:39:15;;;;;;;5.40;4.00;;;;;;;23.60;47.76;100989.95;107844;1256;61122;-80
2023/06/08 06:41:42;;;;;;;5.80;4.10;;;;;;;23.67;48.04;100989.59;108258;1257;60216;-78
2023/06/08 06:44:09;;;;;;;4.60;3.70;;;;;;;23.82;48.05;100990.70;107852;1262;74810;-81
2023/06/08 06:46:36;;;;;;;8.20;4.10;;;;;;;23.99;47.79;100990.43;107880;1256;72722;-80
2023/06/08 06:49:03;;;;;;;5.80;3.90;;;;;;;24.12;46.56;100986.41;107877;1257;71372;-80
2023/06/08 06:51:30;;;;;;;5.20;3.70;;;;;;;24.16;45.88;100985.77;107946;1257;61151;-81
2023/06/08 06:53:57;;;;;;;4.40;3.40;;;;;;;24.12;45.03;100985.96;107886;1256;61174;-81
2023/06/08 06:56:24;;;;;;;4.30;3.20;;;;;;;24.11;45.50;100986.87;107952;1257;73115;-78
2023/06/08 06:58:52;;;;;;;4.90;3.50;;;;;;;24.12;44.93;100988.54;107840;1256;72586;-79
2023/06/08 07:01:20;;;;;;;5.50;3.40;;;;;;;24.10;45.08;100986.83;107835;1257;72486;-78
2023/06/08 07:03:47;;;;;;;4.30;3.40;;;;;;;24.07;44.84;100989.69;107799;1256;61253;-81
2023/06/08 07:06:14;;;;;;;5.70;3.60;;;;;;;24.01;44.35;100989.64;107788;1257;61129;-81
2023/06/08 07:08:42;;;;;;;6.70;4.30;;;;;;;23.94;44.35;100990.55;107817;1257;74731;-80
2023/06/08 07:11:11;;;;;;;5.40;3.80;;;;;;;23.94;44.94;100992.66;107846;1257;72742;-81
2023/06/08 07:13:39;;;;;;;4.50;3.40;;;;;;;23.96;44.60;100989.06;107800;1259;72482;-79
2023/06/08 07:16:06;;;;;;;5.00;3.50;;;;;;;24.00;44.61;100985.92;107825;1257;61180;-79
2023/06/08 07:18:33;;;;;;;4.50;3.40;;;;;;;24.05;44.57;100987.97;107832;1257;61154;-79
2023/06/08 07:21:00;;;;;;;6.00;3.90;;;;;;;24.15;45.14;100987.32;107842;1257;74356;-80
2023/06/08 07:23:28;;;;;;;5.60;3.90;;;;;;;24.23;44.89;100988.56;107838;1257;72573;-79
2023/06/08 07:26:15;;;;;;;5.20;3.80;;;;;;;24.23;44.76;100990.60;107818;1257;73006;-79
2023/06/08 07:28:57;;;;;;;;;;;;;;;24.25;45.35;100990.83;107644;1257;199667;-79
2023/06/08 07:31:26;;;;;;;5.90;4.00;;;;;;;24.31;44.90;100990.08;107827;1260;61375;-81
2023/06/08 07:33:59;;;;;;;6.70;3.50;;;;;;;24.28;44.40;100989.09;107864;1256;75072;-80
2023/06/08 07:36:28;;;;;;;4.60;3.50;;;;;;;24.27;44.52;100992.40;107817;1256;72789;-79
2023/06/08 07:38:56;;;;;;;5.50;3.70;;;;;;;24.26;44.41;100989.01;107877;1256;72525;-80
2023/06/08 07:41:26;;;;;;;5.60;4.20;;;;;;;24.19;44.47;100986.58;107847;1257;61244;-80
2023/06/08 07:43:52;;;;;;;5.10;3.60;;;;;;;24.10;45.07;100984.66;107886;1257;61260;-79
2023/06/08 07:46:19;;;;;;;5.80;3.60;;;;;;;24.08;45.25;100981.77;107888;1257;73696;-80
2023/06/08 07:48:46;;;;;;;4.70;3.70;;;;;;;24.03;44.97;100978.55;107884;1256;72700;-80
2023/06/08 07:51:14;;;;;;;8.40;3.80;;;;;;;23.99;44.89;100979.04;107847;1256;71589;-80
2023/06/08 07:53:41;;;;;;;5.60;3.90;;;;;;;23.98;44.66;100981.42;107814;1257;61106;-80
2023/06/08 07:56:08;;;;;;;5.00;3.40;;;;;;;23.96;44.06;100977.77;107847;1260;60106;-80
2023/06/08 07:58:35;;;;;;;5.30;3.70;;;;;;;23.94;44.64;100978.25;107872;1257;74530;-80
2023/06/08 08:01:02;;;;;;;6.60;3.70;;;;;;;23.96;44.64;100977.31;107846;1260;72303;-80
2023/06/08 08:03:34;;;;;;;6.30;3.40;;;;;;;24.00;44.79;100977.05;107876;1256;71269;-79
2023/06/08 08:06:01;;;;;;;4.90;3.40;;;;;;;24.11;45.38;100969.77;107854;1256;61351;-80
2023/06/08 08:08:28;;;;;;;5.20;3.30;;;;;;;24.21;43.99;100970.82;107875;1256;61353;-80
2023/06/08 08:10:55;;;;;;;4.60;3.30;;;;;;;24.25;43.83;100969.15;107773;1256;74755;-79
2023/06/08 08:13:22;;;;;;;6.10;3.40;;;;;;;24.32;44.42;100968.77;107850;1256;72741;-80
2023/06/08 08:15:50;;;;;;;4.80;3.60;;;;;;;24.42;43.94;100970.12;107829;1256;72557;-80
2023/06/08 08:18:17;;;;;;;4.70;3.60;;;;;;;24.48;43.38;100970.86;107900;1256;61125;-80
2023/06/08 08:20:44;;;;;;;5.90;3.60;;;;;;;24.49;43.81;100968.50;107857;1256;61124;-79
2023/06/08 08:23:11;;;;;;;5.20;3.90;;;;;;;24.52;43.38;100971.06;107871;1257;73582;-79
2023/06/08 08:25:38;;;;;;;5.50;3.60;;;;;;;24.54;43.36;100971.36;107857;1257;71840;-80
2023/06/08 08:28:05;;;;;;;5.10;3.60;;;;;;;24.58;43.32;100971.72;107677;1256;72560;-80
2023/06/08 08:30:32;;;;;;;6.70;3.70;;;;;;;24.62;43.23;100970.98;107930;1257;60988;-80
2023/06/08 08:33:00;;;;;;;4.40;3.20;;;;;;;24.70;43.62;100966.71;107917;1257;60359;-80
2023/06/08 08:35:30;;;;;;;4.70;3.20;;;;;;;24.81;43.29;100967.84;107857;1256;74555;-79
2023/06/08 08:37:57;;;;;;;4.50;3.30;;;;;;;24.89;42.76;100966.53;107821;1256;72671;-79
2023/06/08 08:40:24;;;;;;;4.70;3.50;;;;;;;24.96;42.87;100970.16;107958;1257;72679;-79
2023/06/08 08:43:17;;;;;;;4.30;3.20;;;;;;;24.99;42.28;100967.77;107848;1256;61430;-79
2023/06/08 08:45:44;;;;;;;5.10;3.00;;;;;;;25.04;42.69;100964.16;107923;1256;61148;-80
2023/06/08 08:48:13;;;;;;;5.20;3.40;;;;;;;25.07;42.20;100960.73;107922;1257;74642;-79
2023/06/08 08:50:41;;;;;;;5.90;3.40;;;;;;;25.03;41.37;100963.03;107910;1256;72754;-79
2023/06/08 08:53:09;;;;;;;4.70;3.30;;;;;;;24.97;41.44;100960.61;107895;1256;71715;-79
2023/06/08 08:55:38;;;;;;;4.60;3.30;;;;;;;24.92;41.33;100957.80;107950;1256;61251;-78
2023/06/08 08:58:05;;;;;;;5.40;3.20;;;;;;;24.86;40.99;100959.34;107672;1256;60217;-78
2023/06/08 09:00:34;;;;;;;6.10;3.30;;;;;;;24.79;41.19;100959.90;107832;1256;73967;-78
2023/06/08 09:03:02;;;;;;;5.40;3.30;;;;;;;24.77;41.47;100958.20;107846;1257;72785;-80
2023/06/08 09:05:30;;;;;;;4.60;3.50;;;;;;;24.73;41.45;100957.38;107865;1257;72032;-79
2023/06/08 09:07:57;;;;;;;4.90;3.20;;;;;;;24.76;41.73;100958.23;107824;1257;61098;-79
2023/06/08 09:10:25;;;;;;;4.60;3.30;;;;;;;24.84;42.09;100956.67;107849;1257;61119;-79
2023/06/08 09:12:54;;;;;;;5.50;3.70;;;;;;;24.92;42.04;100958.65;107874;1261;74371;-78
2023/06/08 09:15:27;;;;;;;4.70;3.40;;;;;;;25.00;42.31;100960.70;107862;1257;72866;-79
2023/06/08 09:17:58;;;;;;;4.80;3.20;;;;;;;25.14;41.94;100960.59;107885;1256;72462;-80
2023/06/08 09:20:31;;;;;;;4.70;3.30;;;;;;;25.21;41.04;100962.35;107886;1256;61127;-79
2023/06/08 09:22:59;;;;;;;4.50;3.00;;;;;;;25.25;41.56;100968.71;107896;1256;61086;-79
2023/06/08 09:25:46;;;;;;;5.30;3.20;;;;;;;25.29;41.01;100965.85;107828;1257;72397;-80
2023/06/08 09:28:28;;;;;;;5.30;3.70;;;;;;;25.29;40.34;100962.73;107923;1256;72769;-79
2023/06/08 09:30:57;;;;;;;6.70;3.40;;;;;;;25.21;40.92;100969.70;107794;1256;71130;-79
2023/06/08 09:33:29;;;;;;;5.20;3.20;;;;;;;25.21;41.34;100963.05;107852;1256;61249;-80
2023/06/08 09:35:56;;;;;;;5.10;3.40;;;;;;;25.32;41.80;100966.10;107908;1256;61238;-79
2023/06/08 09:38:27;;;;;;;6.20;3.90;;;;;;;25.45;41.76;100961.95;107885;1256;74775;-80
2023/06/08 09:41:15;;;;;;;6.40;4.00;;;;;;;25.62;41.83;100961.53;107891;1256;72862;-78
2023/06/08 09:43:44;;;;;;;4.40;3.30;;;;;;;25.81;41.57;100964.59;107903;1260;72712;-80
2023/06/08 09:46:36;;;;;;;4.50;3.90;;;;;;;25.94;40.51;100963.70;107917;1256;61229;-81
2023/06/08 09:49:04;;;;;;;7.40;3.70;;;;;;;25.96;40.34;100961.01;107928;1256;61141;-79
2023/06/08 09:51:33;;;;;;;5.70;3.40;;;;;;;25.96;40.84;100964.06;107883;1257;74468;-78
2023/06/08 09:54:00;;;;;;;4.70;3.60;;;;;;;26.06;40.54;100963.92;107951;1256;71224;-80
2023/06/08 09:56:27;;;;;;;5.70;3.40;;;;;;;26.09;39.63;100959.05;107820;1256;72853;-82
2023/06/08 09:58:58;;;;;;;5.00;3.70;;;;;;;26.04;39.38;100957.52;107929;1256;60404;-81
2023/06/08 10:01:48;;;;;;;5.40;3.70;;;;;;;26.07;40.20;100960.36;107876;1257;61245;-81
2023/06/08 10:04:51;;;;;;;4.40;3.30;;;;;;;26.19;40.53;100956.09;107805;1258;74535;-79
2023/06/08 10:07:24;;;;;;;5.90;3.20;;;;;;;26.39;39.77;100946.75;107844;1257;71341;-78
2023/06/08 10:10:01;;;;;;;5.60;3.40;;;;;;;26.52;39.62;100944.33;107694;1262;72720;-78
2023/06/08 10:12:28;;;;;;;6.70;3.60;;;;;;;26.63;39.72;100942.71;107859;1257;61268;-80
2023/06/08 10:14:57;;;;;;;4.20;3.10;;;;;;;26.76;39.16;100941.13;107898;1257;61940;-80
2023/06/08 10:17:25;;;;;;;5.60;3.50;;;;;;;26.84;38.06;100938.39;107849;1257;73624;-80
2023/06/08 10:19:53;;;;;;;4.70;3.50;;;;;;;26.80;37.72;100941.05;107821;1257;72699;-79
2023/06/08 10:22:20;;;;;;;18.80;4.90;;;;;;;26.76;37.69;100935.02;107766;1256;72476;-79
2023/06/08 10:24:48;;;;;;;4.40;2.80;;;;;;;26.79;38.35;100934.59;107880;1256;61234;-79
2023/06/08 10:27:35;;;;;;;5.50;3.20;;;;;;;26.90;38.32;100932.97;107835;1256;61199;-80
2023/06/08 10:30:05;;;;;;;6.10;3.50;;;;;;;26.99;37.85;100927.58;107941;1256;74782;-78
2023/06/08 10:32:42;;;;;;;4.50;3.20;;;;;;;27.01;37.51;100924.83;107923;1257;72785;-80
2023/06/08 10:35:10;;;;;;;4.60;3.30;;;;;;;27.01;37.90;100920.59;107869;1256;71599;-81
2023/06/08 10:37:38;;;;;;;6.30;3.20;;;;;;;27.02;37.15;100917.72;107882;1256;60398;-80
2023/06/08 10:40:08;;;;;;;5.20;3.10;;;;;;;27.00;37.33;100916.56;107919;1256;61139;-80
2023/06/08 10:42:35;;;;;;;6.20;3.40;;;;;;;27.07;37.64;100916.18;107891;1256;74458;-79
2023/06/08 10:45:03;;;;;;;4.60;3.20;;;;;;;27.21;37.77;100913.82;107887;1256;72923;-80
2023/06/08 10:47:33;;;;;;;5.60;3.30;;;;;;;27.40;37.78;100912.23;107949;1258;72727;-79
2023/06/08 10:50:02;;;;;;;5.10;3.20;;;;;;;27.56;36.72;100909.63;107844;1257;61253;-79
2023/06/08 10:52:42;;;;;;;5.40;3.10;;;;;;;27.56;36.55;100906.44;107927;1256;61129;-79
2023/06/08 10:55:14;;;;;;;6.50;3.10;;;;;;;27.46;36.54;100904.35;107929;1256;73395;-80
2023/06/08 10:57:46;;;;;;;5.80;3.30;;;;;;;27.42;36.90;100902.23;107840;1257;72628;-79
2023/06/08 11:00:30;;;;;;;4.20;2.70;;;;;;;27.40;36.38;100897.80;107816;1262;72557;-79
2023/06/08 11:03:01;;;;;;;5.90;3.10;;;;;;;27.38;36.83;100898.55;107829;1258;61241;-78
2023/06/08 11:05:28;;;;;;;5.30;3.20;;;;;;;27.45;37.10;100899.77;107840;1257;61221;-78
2023/06/08 11:07:56;;;;;;;4.10;3.00;;;;;;;27.54;36.76;100897.60;107859;1257;74386;-78
2023/06/08 11:10:26;;;;;;;4.20;3.10;;;;;;;27.56;36.54;100896.09;107793;1257;72658;-78
2023/06/08 11:12:54;;;;;;;5.70;3.30;;;;;;;27.54;36.04;100894.94;107841;1256;72509;-79
2023/06/08 11:15:24;;;;;;;4.70;3.70;;;;;;;27.30;36.56;100897.78;107907;1256;61131;-78
2023/06/08 11:17:56;;;;;;;9.60;3.90;;;;;;;27.04;36.92;100891.77;107915;1257;61216;-80
2023/06/08 11:20:27;;;;;;;4.90;3.00;;;;;;;26.87;36.77;100895.86;107949;1257;74734;-79
2023/06/08 11:22:54;;;;;;;4.90;3.00;;;;;;;26.83;36.84;100891.79;108010;1256;72688;-79
2023/06/08 11:25:21;;;;;;;5.50;3.50;;;;;;;26.75;36.95;100890.67;107983;1256;72884;-79
2023/06/08 11:27:53;;;;;;;5.40;3.50;;;;;;;26.61;37.29;100888.66;107948;1256;61087;-80
2023/06/08 11:30:20;;;;;;;;;;;;;;;26.47;37.49;100894.73;107849;1256;61141;-79